Time;durP1;ratioP1;P1;durP2;ratioP2;P2;SDS_P1;SDS_P2;PMS_P1;PMS_P2;Temp;Humidity;BMP_temperature;BMP_pressure;BME280_temperature;BME280_humidity;BME280_pressure;Samples;Min_cycle;Max_cycle;Signal;HPM_P1;HPM_P2
2022/01/18 00:00:24;;;;;;;8.30;7.30;;;;;;;;;;5086281;28;20971;-66
2022/01/18 00:02:51;;;;;;;7.97;6.53;;;;;;;;;;5065556;28;20432;-66
2022/01/18 00:05:18;;;;;;;9.23;7.73;;;;;;;;;;5069566;28;20884;-66
2022/01/18 00:07:45;;;;;;;9.40;7.13;;;;;;;;;;5083453;28;20505;-73
2022/01/18 00:10:12;;;;;;;8.63;6.50;;;;;;;;;;5085278;28;20477;-66
2022/01/18 00:20:42;;;;;;;7.43;6.20;;;;;;;;;;5088397;28;20432;-67
2022/01/18 00:23:09;;;;;;;6.83;6.20;;;;;;;;;;5087402;28;20436;-67
2022/01/18 00:25:38;;;;;;;6.27;5.27;;;;;;;;;;5088864;28;20475;-67
2022/01/18 00:28:06;;;;;;;6.70;6.10;;;;;;;;;;5068346;28;20428;-65
2022/01/18 00:35:32;;;;;;;5.77;5.37;;;;;;;;;;5086735;28;20972;-66
2022/01/18 00:37:59;;;;;;;5.17;4.70;;;;;;;;;;5087127;28;20477;-66
2022/01/18 00:40:25;;;;;;;5.53;4.50;;;;;;;;;;5079811;28;20487;-66
2022/01/18 00:42:51;;;;;;;4.43;4.10;;;;;;;;;;5086941;28;20479;-66
2022/01/18 00:45:17;;;;;;;5.30;4.90;;;;;;;;;;5086279;28;20506;-65
2022/01/18 00:47:43;;;;;;;5.30;4.83;;;;;;;;;;5070949;28;20482;-65
2022/01/18 00:50:10;;;;;;;5.00;4.70;;;;;;;;;;5082196;28;20962;-66
2022/01/18 00:52:41;;;;;;;5.10;4.70;;;;;;;;;;5087075;28;20926;-69
2022/01/18 00:55:07;;;;;;;4.43;4.10;;;;;;;;;;5086622;28;20424;-66
2022/01/18 00:57:33;;;;;;;5.03;4.63;;;;;;;;;;5086924;28;20435;-66
2022/01/18 00:59:59;;;;;;;4.60;4.40;;;;;;;;;;5083887;28;20428;-66
2022/01/18 01:02:25;;;;;;;4.30;3.90;;;;;;;;;;5086006;28;20441;-66
2022/01/18 01:04:51;;;;;;;4.90;4.60;;;;;;;;;;5084485;28;20480;-66
2022/01/18 01:07:23;;;;;;;4.93;4.37;;;;;;;;;;5085841;28;20468;-65
2022/01/18 01:09:49;;;;;;;5.13;4.83;;;;;;;;;;5085056;28;20455;-66
2022/01/18 01:12:18;;;;;;;5.70;5.27;;;;;;;;;;5084627;28;20920;-66
2022/01/18 01:14:45;;;;;;;4.70;4.30;;;;;;;;;;5086272;28;20460;-66
2022/01/18 01:36:02;;;;;;;12.10;8.50;;;;;;;;;;5086762;28;20906;-66
2022/01/18 01:46:25;;;;;;;12.50;8.20;;;;;;;;;;5083578;28;20857;-66
2022/01/18 01:48:54;;;;;;;8.90;7.17;;;;;;;;;;5087096;28;20439;-66
2022/01/18 01:51:28;;;;;;;7.87;7.07;;;;;;;;;;5083710;28;20934;-69
2022/01/18 01:53:54;;;;;;;5.63;5.10;;;;;;;;;;5085299;28;20940;-74
2022/01/18 01:56:20;;;;;;;6.53;5.93;;;;;;;;;;5085929;28;20467;-66
2022/01/18 01:58:46;;;;;;;6.10;5.60;;;;;;;;;;5079889;28;20447;-66
2022/01/18 02:01:12;;;;;;;10.90;6.00;;;;;;;;;;5084603;28;20932;-72
2022/01/18 02:03:38;;;;;;;5.80;5.33;;;;;;;;;;5083349;28;20480;-69
2022/01/18 02:06:04;;;;;;;6.70;5.90;;;;;;;;;;5084724;28;20440;-65
2022/01/18 02:08:30;;;;;;;4.83;4.50;;;;;;;;;;5085587;28;20505;-70
2022/01/18 02:10:56;;;;;;;5.27;4.87;;;;;;;;;;5086848;28;20432;-66
2022/01/18 02:13:22;;;;;;;6.67;4.50;;;;;;;;;;5083171;28;20448;-66
2022/01/18 02:23:56;;;;;;;5.17;4.77;;;;;;;;;;5089844;28;20553;-74
2022/01/18 02:26:22;;;;;;;7.83;5.23;;;;;;;;;;5089595;28;20960;-71
2022/01/18 02:28:48;;;;;;;5.03;4.40;;;;;;;;;;5091131;28;20420;-68
2022/01/18 02:31:14;;;;;;;5.10;4.80;;;;;;;;;;5089241;28;21043;-71
2022/01/18 02:33:40;;;;;;;4.40;4.00;;;;;;;;;;5088356;28;20468;-74
2022/01/18 02:36:07;;;;;;;4.97;4.60;;;;;;;;;;5091906;28;20433;-66
2022/01/18 02:38:33;;;;;;;4.97;4.50;;;;;;;;;;5088188;28;20507;-66
2022/01/18 02:40:59;;;;;;;4.93;4.57;;;;;;;;;;5089225;28;20570;-67
2022/01/18 02:46:11;;;;;;;5.07;3.80;;;;;;;;;;5092070;28;20812;-66
2022/01/18 02:48:37;;;;;;;6.00;4.10;;;;;;;;;;5089136;28;20644;-66
2022/01/18 02:51:04;;;;;;;4.27;3.93;;;;;;;;;;5090632;28;20493;-65
2022/01/18 02:53:30;;;;;;;5.13;4.67;;;;;;;;;;5087737;28;20464;-68
2022/01/18 02:55:58;;;;;;;4.67;4.37;;;;;;;;;;5089557;28;20909;-66
2022/01/18 02:58:27;;;;;;;3.93;3.57;;;;;;;;;;5087160;28;20424;-67
2022/01/18 03:03:25;;;;;;;3.53;3.30;;;;;;;;;;5086413;28;20844;-67
2022/01/18 03:05:52;;;;;;;3.57;3.47;;;;;;;;;;5085695;28;20436;-66
2022/01/18 03:08:18;;;;;;;5.00;4.60;;;;;;;;;;5087780;28;21002;-74
2022/01/18 03:10:45;;;;;;;3.70;3.40;;;;;;;;;;5088959;28;20527;-68
2022/01/18 03:13:11;;;;;;;5.40;3.70;;;;;;;;;;5087937;28;20479;-70
2022/01/18 03:15:37;;;;;;;5.00;4.00;;;;;;;;;;5070399;28;20625;-68
2022/01/18 03:18:04;;;;;;;4.07;3.73;;;;;;;;;;5090440;28;20428;-67
2022/01/18 03:20:30;;;;;;;4.87;4.30;;;;;;;;;;5088972;28;20475;-66
2022/01/18 03:22:56;;;;;;;4.47;4.07;;;;;;;;;;5086042;28;20444;-66
2022/01/18 03:25:29;;;;;;;4.50;4.10;;;;;;;;;;5088405;28;20472;-66
2022/01/18 03:28:06;;;;;;;5.17;4.13;;;;;;;;;;5090503;28;20787;-67
2022/01/18 03:30:31;;;;;;;4.87;4.47;;;;;;;;;;5089087;28;20432;-65
2022/01/18 03:32:57;;;;;;;3.70;3.60;;;;;;;;;;5083329;28;20471;-67
2022/01/18 03:35:24;;;;;;;6.13;5.57;;;;;;;;;;5089406;28;20432;-74
2022/01/18 03:37:50;;;;;;;5.83;5.23;;;;;;;;;;5067167;28;20494;-66
2022/01/18 03:40:16;;;;;;;5.03;4.73;;;;;;;;;;5085710;28;20513;-66
2022/01/18 03:42:44;;;;;;;5.27;5.07;;;;;;;;;;5087406;28;20508;-67
2022/01/18 03:45:13;;;;;;;6.50;5.50;;;;;;;;;;5089747;28;20971;-66
2022/01/18 03:47:39;;;;;;;4.90;4.60;;;;;;;;;;5086270;28;20481;-66
2022/01/18 03:50:06;;;;;;;5.90;5.30;;;;;;;;;;5089015;28;20436;-66
2022/01/18 03:52:32;;;;;;;6.00;5.53;;;;;;;;;;5086917;28;20436;-67
2022/01/18 03:54:58;;;;;;;6.67;6.03;;;;;;;;;;5071859;28;20436;-65
2022/01/18 03:57:24;;;;;;;6.97;4.90;;;;;;;;;;5083740;28;20444;-65
2022/01/18 03:59:50;;;;;;;9.93;6.97;;;;;;;;;;5089183;28;20447;-66
2022/01/18 04:02:16;;;;;;;6.80;6.03;;;;;;;;;;5088198;28;20432;-70
2022/01/18 04:04:43;;;;;;;6.23;5.70;;;;;;;;;;5089529;28;20495;-66
2022/01/18 04:07:09;;;;;;;5.57;5.17;;;;;;;;;;5088751;28;20456;-66
2022/01/18 04:09:35;;;;;;;5.03;4.73;;;;;;;;;;5087119;28;20522;-66
2022/01/18 04:12:01;;;;;;;7.20;5.90;;;;;;;;;;5083025;28;20421;-66
2022/01/18 04:14:27;;;;;;;6.23;5.37;;;;;;;;;;5083499;28;20994;-68
2022/01/18 04:27:27;;;;;;;5.70;5.07;;;;;;;;;;5085059;28;20505;-71
2022/01/18 04:29:53;;;;;;;4.33;4.03;;;;;;;;;;5090294;28;20436;-72
2022/01/18 04:32:20;;;;;;;8.83;5.03;;;;;;;;;;5088338;28;20797;-70
2022/01/18 04:34:47;;;;;;;4.13;3.73;;;;;;;;;;5088365;28;20936;-66
2022/01/18 04:37:13;;;;;;;4.07;3.87;;;;;;;;;;5087600;28;20519;-67
2022/01/18 04:39:40;;;;;;;6.57;4.80;;;;;;;;;;5086376;28;20811;-77
2022/01/18 04:42:17;;;;;;;4.47;4.17;;;;;;;;;;5071205;28;20456;-68
2022/01/18 04:50:12;;;;;;;3.33;3.13;;;;;;;;;;5086957;28;20477;-66
2022/01/18 04:52:38;;;;;;;5.63;5.23;;;;;;;;;;5087329;28;20441;-74
2022/01/18 04:55:05;;;;;;;5.00;4.60;;;;;;;;;;5087388;28;20439;-74
2022/01/18 05:00:16;;;;;;;4.93;4.60;;;;;;;;;;5089464;28;20473;-69
2022/01/18 05:02:42;;;;;;;6.07;5.57;;;;;;;;;;5085146;28;20425;-66
2022/01/18 05:05:10;;;;;;;5.17;4.60;;;;;;;;;;5083829;28;20975;-65
2022/01/18 05:07:38;;;;;;;5.40;5.10;;;;;;;;;;5087133;28;20496;-68
2022/01/18 05:10:04;;;;;;;5.07;4.67;;;;;;;;;;5087083;28;20441;-66
2022/01/18 05:12:51;;;;;;;6.10;5.50;;;;;;;;;;5082473;28;20519;-66
2022/01/18 05:15:42;;;;;;;6.30;5.80;;;;;;;;;;5085343;28;20463;-66
2022/01/18 05:18:59;;;;;;;5.40;5.00;;;;;;;;;;5082298;28;20455;-66
2022/01/18 05:23:24;;;;;;;5.40;4.90;;;;;;;;;;5088317;28;20468;-66
2022/01/18 05:25:50;;;;;;;6.20;5.90;;;;;;;;;;5087735;28;20451;-66
2022/01/18 05:28:16;;;;;;;7.03;6.40;;;;;;;;;;5086163;28;20428;-70
2022/01/18 05:30:42;;;;;;;10.80;5.37;;;;;;;;;;5089199;28;20813;-66
2022/01/18 05:33:08;;;;;;;5.60;5.20;;;;;;;;;;5088023;28;20792;-65
2022/01/18 05:35:35;;;;;;;6.00;5.53;;;;;;;;;;5080580;28;20443;-69
2022/01/18 05:38:01;;;;;;;6.77;6.27;;;;;;;;;;5086703;28;20439;-65
2022/01/18 05:40:27;;;;;;;7.87;6.63;;;;;;;;;;5088105;28;20519;-66
2022/01/18 05:42:53;;;;;;;7.33;6.73;;;;;;;;;;5088588;28;20421;-73
2022/01/18 05:45:19;;;;;;;10.10;7.00;;;;;;;;;;5083901;28;20491;-74
2022/01/18 05:47:45;;;;;;;10.30;6.57;;;;;;;;;;5086048;28;20441;-77
2022/01/18 05:50:12;;;;;;;6.87;6.20;;;;;;;;;;5083846;28;20437;-71
2022/01/18 05:52:39;;;;;;;6.37;5.80;;;;;;;;;;5085603;28;20436;-66
2022/01/18 05:55:05;;;;;;;5.70;5.30;;;;;;;;;;5084439;28;20456;-68
2022/01/18 05:57:31;;;;;;;6.70;6.03;;;;;;;;;;5073387;28;20805;-69
2022/01/18 06:00:04;;;;;;;7.23;5.83;;;;;;;;;;5071514;28;21222;-67
2022/01/18 06:03:18;;;;;;;9.40;6.50;;;;;;;;;;5090408;28;20515;-66
2022/01/18 06:08:01;;;;;;;7.40;6.70;;;;;;;;;;5086747;28;20462;-70
2022/01/18 06:10:27;;;;;;;8.30;7.47;;;;;;;;;;5090659;28;20448;-72
2022/01/18 06:12:53;;;;;;;8.23;7.13;;;;;;;;;;5092378;28;20769;-70
2022/01/18 06:15:19;;;;;;;5.43;5.10;;;;;;;;;;5089030;28;20428;-66
2022/01/18 06:17:45;;;;;;;6.10;5.70;;;;;;;;;;5084439;28;20444;-69
2022/01/18 06:20:12;;;;;;;6.93;6.33;;;;;;;;;;5086403;28;20433;-66
2022/01/18 06:22:38;;;;;;;10.30;8.33;;;;;;;;;;5089671;28;20533;-67
2022/01/18 06:25:04;;;;;;;7.73;7.20;;;;;;;;;;5089170;28;20488;-65
2022/01/18 06:27:30;;;;;;;12.20;9.37;;;;;;;;;;5091953;28;20432;-68
2022/01/18 06:29:56;;;;;;;11.57;8.67;;;;;;;;;;5090151;28;20444;-74
2022/01/18 06:32:24;;;;;;;11.30;7.57;;;;;;;;;;5086009;28;20436;-70
2022/01/18 06:34:50;;;;;;;17.67;8.70;;;;;;;;;;5089473;28;20440;-65
2022/01/18 06:37:16;;;;;;;10.10;6.70;;;;;;;;;;5091121;28;20425;-65
2022/01/18 06:39:42;;;;;;;12.07;9.63;;;;;;;;;;5090861;28;20440;-66
2022/01/18 06:42:10;;;;;;;12.50;9.87;;;;;;;;;;5087725;28;20493;-69
2022/01/18 06:44:36;;;;;;;13.33;9.97;;;;;;;;;;5088660;28;20588;-72
2022/01/18 06:47:02;;;;;;;18.93;13.47;;;;;;;;;;5091948;28;20431;-66
2022/01/18 06:49:28;;;;;;;12.87;9.93;;;;;;;;;;5086607;28;20440;-66
2022/01/18 06:51:54;;;;;;;10.13;8.30;;;;;;;;;;5083270;28;20420;-65
2022/01/18 06:54:20;;;;;;;14.70;9.20;;;;;;;;;;5086707;28;20997;-69
2022/01/18 06:56:49;;;;;;;13.07;9.57;;;;;;;;;;5089851;28;20444;-65
2022/01/18 06:59:15;;;;;;;14.83;10.27;;;;;;;;;;5068999;28;20880;-67
2022/01/18 07:01:41;;;;;;;12.20;10.10;;;;;;;;;;5086952;28;20448;-67
2022/01/18 07:04:07;;;;;;;15.20;11.30;;;;;;;;;;5085998;28;20491;-66
2022/01/18 07:06:33;;;;;;;16.40;11.77;;;;;;;;;;5086028;28;20937;-66
2022/01/18 07:09:00;;;;;;;14.17;11.20;;;;;;;;;;5085152;28;20880;-67
2022/01/18 07:11:26;;;;;;;12.63;11.10;;;;;;;;;;5076583;28;20438;-66
2022/01/18 07:13:52;;;;;;;17.53;10.50;;;;;;;;;;5078604;28;20452;-66
2022/01/18 07:16:18;;;;;;;18.57;10.90;;;;;;;;;;5091847;28;20467;-66
2022/01/18 07:18:44;;;;;;;13.00;9.00;;;;;;;;;;5090008;28;20445;-69
2022/01/18 07:21:11;;;;;;;17.50;10.27;;;;;;;;;;5091343;28;20481;-67
2022/01/18 07:23:37;;;;;;;16.43;11.30;;;;;;;;;;5083641;28;20561;-71
2022/01/18 07:26:04;;;;;;;14.83;11.20;;;;;;;;;;5090583;28;20448;-68
2022/01/18 07:28:29;;;;;;;13.67;10.63;;;;;;;;;;5088717;28;20792;-71
2022/01/18 07:30:56;;;;;;;11.93;8.77;;;;;;;;;;5087315;28;20448;-67
2022/01/18 07:33:22;;;;;;;15.60;10.70;;;;;;;;;;5068704;28;20425;-72
2022/01/18 07:35:49;;;;;;;14.40;10.13;;;;;;;;;;5087659;28;20441;-66
2022/01/18 07:38:17;;;;;;;14.60;10.50;;;;;;;;;;5087963;28;20963;-69
2022/01/18 07:40:47;;;;;;;14.67;10.53;;;;;;;;;;5087051;28;20535;-66
2022/01/18 07:43:17;;;;;;;11.87;8.20;;;;;;;;;;5084397;28;20511;-66
2022/01/18 07:45:43;;;;;;;13.00;10.77;;;;;;;;;;5088460;28;20787;-74
2022/01/18 07:48:09;;;;;;;14.77;9.37;;;;;;;;;;5071846;28;20420;-69
2022/01/18 07:50:35;;;;;;;7.17;6.30;;;;;;;;;;5085838;28;20429;-73
2022/01/18 07:53:01;;;;;;;13.10;8.80;;;;;;;;;;5087418;28;20436;-71
2022/01/18 07:55:27;;;;;;;10.73;8.20;;;;;;;;;;5087169;28;20455;-73
2022/01/18 07:57:56;;;;;;;17.20;10.40;;;;;;;;;;5088659;28;20425;-71
2022/01/18 08:00:22;;;;;;;12.73;8.67;;;;;;;;;;5084256;28;20438;-66
2022/01/18 08:02:48;;;;;;;16.70;9.87;;;;;;;;;;5079421;28;20828;-67
2022/01/18 08:05:14;;;;;;;12.17;10.13;;;;;;;;;;5083095;28;20489;-65
2022/01/18 08:07:43;;;;;;;12.63;9.67;;;;;;;;;;5085180;28;20971;-65
2022/01/18 08:10:10;;;;;;;12.80;9.73;;;;;;;;;;5083132;28;20531;-66
2022/01/18 08:12:36;;;;;;;11.00;8.70;;;;;;;;;;5069669;28;20463;-65
2022/01/18 08:15:12;;;;;;;14.73;9.80;;;;;;;;;;5082201;28;20445;-65
2022/01/18 08:17:39;;;;;;;10.27;8.80;;;;;;;;;;5084262;28;20466;-66
2022/01/18 08:20:05;;;;;;;11.30;8.43;;;;;;;;;;5080906;28;20531;-74
2022/01/18 08:22:31;;;;;;;9.67;8.20;;;;;;;;;;5084061;28;20444;-64
2022/01/18 08:24:57;;;;;;;10.70;8.80;;;;;;;;;;5082211;28;20490;-70
2022/01/18 08:27:23;;;;;;;11.17;9.43;;;;;;;;;;5087022;28;20452;-76
2022/01/18 08:29:49;;;;;;;11.30;9.10;;;;;;;;;;5046647;28;20459;-64
2022/01/18 08:32:16;;;;;;;14.30;8.37;;;;;;;;;;5058181;28;20889;-66
2022/01/18 08:34:42;;;;;;;11.80;7.97;;;;;;;;;;5084267;28;20432;-66
2022/01/18 08:37:08;;;;;;;10.00;8.60;;;;;;;;;;4927695;28;20472;-67
2022/01/18 08:39:34;;;;;;;12.43;9.40;;;;;;;;;;5007315;28;20451;-65
2022/01/18 08:41:59;;;;;;;10.10;7.90;;;;;;;;;;5001498;28;21179;-66
2022/01/18 08:44:26;;;;;;;11.33;7.90;;;;;;;;;;5003840;28;20635;-66
2022/01/18 08:46:52;;;;;;;19.33;8.73;;;;;;;;;;5002935;28;20437;-66
2022/01/18 08:49:18;;;;;;;12.07;8.17;;;;;;;;;;5005418;28;21238;-65
2022/01/18 08:51:45;;;;;;;15.30;10.37;;;;;;;;;;4998607;28;20440;-66
2022/01/18 08:54:11;;;;;;;15.27;9.40;;;;;;;;;;5009311;28;20540;-66
2022/01/18 08:56:37;;;;;;;16.37;10.43;;;;;;;;;;5007425;28;20869;-65
2022/01/18 08:59:03;;;;;;;18.83;9.97;;;;;;;;;;4993616;28;20444;-68
2022/01/18 09:01:28;;;;;;;11.97;9.10;;;;;;;;;;5001515;28;20523;-68
2022/01/18 09:03:54;;;;;;;10.30;9.33;;;;;;;;;;5008327;28;20538;-66
2022/01/18 09:06:23;;;;;;;13.23;8.70;;;;;;;;;;5009110;28;20434;-65
2022/01/18 09:08:55;;;;;;;12.53;8.93;;;;;;;;;;5009328;28;20574;-66
2022/01/18 09:11:23;;;;;;;11.03;8.70;;;;;;;;;;5009647;28;20459;-66
2022/01/18 09:13:49;;;;;;;18.23;8.90;;;;;;;;;;5008655;28;20445;-71
2022/01/18 09:16:15;;;;;;;11.57;7.87;;;;;;;;;;5008270;28;20459;-67
2022/01/18 09:18:43;;;;;;;10.73;9.63;;;;;;;;;;5009053;28;20428;-65
2022/01/18 09:21:09;;;;;;;12.57;8.97;;;;;;;;;;5009682;28;20431;-66
2022/01/18 09:23:37;;;;;;;12.93;9.10;;;;;;;;;;5009014;28;20479;-67
2022/01/18 09:26:03;;;;;;;14.70;9.93;;;;;;;;;;5008323;28;20440;-68
2022/01/18 09:28:29;;;;;;;9.90;8.60;;;;;;;;;;5006578;28;20432;-68
2022/01/18 09:30:55;;;;;;;12.90;7.87;;;;;;;;;;5007494;28;20449;-65
2022/01/18 09:33:21;;;;;;;8.77;7.50;;;;;;;;;;5005550;28;20444;-70
2022/01/18 09:35:47;;;;;;;8.60;7.53;;;;;;;;;;5006103;28;20452;-65
2022/01/18 09:38:13;;;;;;;9.00;7.00;;;;;;;;;;5008679;28;20988;-66
2022/01/18 09:40:40;;;;;;;7.80;6.77;;;;;;;;;;5008952;28;20431;-66
2022/01/18 09:43:11;;;;;;;5.83;5.40;;;;;;;;;;5006836;28;20432;-66
2022/01/18 09:45:39;;;;;;;11.30;8.20;;;;;;;;;;5009327;28;21046;-66
2022/01/18 09:48:05;;;;;;;7.03;6.47;;;;;;;;;;5008825;28;20560;-65
2022/01/18 09:50:33;;;;;;;6.97;5.80;;;;;;;;;;5008076;28;20436;-65
2022/01/18 09:53:00;;;;;;;6.67;5.53;;;;;;;;;;5006655;28;20447;-65
2022/01/18 09:55:29;;;;;;;5.20;4.70;;;;;;;;;;5005073;28;20526;-65
2022/01/18 09:57:56;;;;;;;6.60;4.80;;;;;;;;;;5001109;28;20839;-64
2022/01/18 10:00:23;;;;;;;3.93;3.50;;;;;;;;;;4990753;28;20523;-68
2022/01/18 10:02:50;;;;;;;3.60;3.50;;;;;;;;;;5000573;28;20477;-65
2022/01/18 10:05:19;;;;;;;4.63;4.23;;;;;;;;;;5009059;28;20467;-65
2022/01/18 10:07:46;;;;;;;5.00;4.60;;;;;;;;;;5006797;28;20478;-65
2022/01/18 10:10:13;;;;;;;6.33;4.90;;;;;;;;;;5005302;28;20442;-63
2022/01/18 10:12:39;;;;;;;5.27;4.87;;;;;;;;;;5003467;28;20444;-66
2022/01/18 10:15:05;;;;;;;10.33;4.80;;;;;;;;;;5004885;28;20436;-65
2022/01/18 10:17:41;;;;;;;5.20;4.90;;;;;;;;;;5008054;28;20444;-68
2022/01/18 10:20:13;;;;;;;7.17;3.80;;;;;;;;;;5008354;28;20455;-66
2022/01/18 10:22:43;;;;;;;7.27;5.30;;;;;;;;;;5006586;28;20448;-65
2022/01/18 10:25:13;;;;;;;5.93;5.43;;;;;;;;;;5004250;28;20875;-65
2022/01/18 10:27:39;;;;;;;5.40;4.90;;;;;;;;;;5004416;28;21936;-65
2022/01/18 10:30:06;;;;;;;5.57;4.90;;;;;;;;;;5004688;28;20871;-64
2022/01/18 10:32:38;;;;;;;5.17;4.67;;;;;;;;;;5001180;28;20483;-64
2022/01/18 10:35:09;;;;;;;9.43;6.93;;;;;;;;;;5005547;28;20482;-65
2022/01/18 10:37:36;;;;;;;11.10;7.17;;;;;;;;;;5003959;28;20475;-66
2022/01/18 10:40:07;;;;;;;12.37;6.63;;;;;;;;;;5006107;28;20436;-65
2022/01/18 10:42:51;;;;;;;9.97;6.27;;;;;;;;;;5008598;28;20424;-65
2022/01/18 10:45:30;;;;;;;6.47;5.97;;;;;;;;;;5010995;28;20506;-65
2022/01/18 10:48:10;;;;;;;7.50;6.70;;;;;;;;;;5006060;28;20463;-65
2022/01/18 10:50:38;;;;;;;5.83;5.33;;;;;;;;;;5013101;28;20424;-66
2022/01/18 10:53:20;;;;;;;6.47;5.87;;;;;;;;;;5010849;28;20470;-65
2022/01/18 10:55:48;;;;;;;8.60;7.00;;;;;;;;;;5010069;28;20490;-66
2022/01/18 10:58:15;;;;;;;8.90;8.03;;;;;;;;;;5006376;28;21015;-64
2022/01/18 11:00:41;;;;;;;7.53;6.77;;;;;;;;;;5006259;28;20453;-68
2022/01/18 11:03:07;;;;;;;5.27;4.40;;;;;;;;;;5002960;28;20433;-67
2022/01/18 11:05:35;;;;;;;6.87;5.23;;;;;;;;;;5007543;28;20575;-68
2022/01/18 11:08:04;;;;;;;5.80;3.70;;;;;;;;;;5001833;28;20479;-69
2022/01/18 11:10:40;;;;;;;3.63;3.37;;;;;;;;;;5010656;28;20424;-65
2022/01/18 11:13:10;;;;;;;4.43;3.97;;;;;;;;;;5001026;28;20471;-65
2022/01/18 11:15:39;;;;;;;4.20;3.40;;;;;;;;;;5011188;28;20436;-65
2022/01/18 11:18:14;;;;;;;3.63;3.53;;;;;;;;;;5011273;28;20448;-66
2022/01/18 11:20:42;;;;;;;4.00;3.80;;;;;;;;;;5010203;28;20443;-66
2022/01/18 11:23:08;;;;;;;3.77;3.57;;;;;;;;;;4998591;28;21022;-65
2022/01/18 11:25:37;;;;;;;2.30;2.30;;;;;;;;;;5002233;28;20602;-65
2022/01/18 11:28:04;;;;;;;2.60;2.50;;;;;;;;;;4998031;28;20472;-68
2022/01/18 11:30:33;;;;;;;3.50;3.40;;;;;;;;;;5005153;28;20440;-65
2022/01/18 11:33:00;;;;;;;3.00;2.90;;;;;;;;;;4998454;28;20444;-66
2022/01/18 11:35:34;;;;;;;3.43;3.13;;;;;;;;;;5002274;28;20460;-67
2022/01/18 11:38:15;;;;;;;2.50;2.30;;;;;;;;;;4999259;28;20949;-65
2022/01/18 11:40:46;;;;;;;4.33;3.30;;;;;;;;;;4986928;28;20456;-65
2022/01/18 11:43:12;;;;;;;2.60;2.40;;;;;;;;;;5000358;28;20432;-65
2022/01/18 11:45:39;;;;;;;2.80;2.63;;;;;;;;;;4998758;28;20840;-70
2022/01/18 11:48:11;;;;;;;2.97;2.67;;;;;;;;;;5001185;28;20490;-63
2022/01/18 11:50:41;;;;;;;3.67;3.37;;;;;;;;;;5006676;28;20856;-65
2022/01/18 11:54:06;;;;;;;2.57;2.47;;;;;;;;;;4988241;28;20445;-66
2022/01/18 11:56:03;;;;;;;5.70;3.63;;;;;;;;;;4992148;28;20464;-65
2022/01/18 11:58:31;;;;;;;2.70;2.60;;;;;;;;;;4984328;28;20444;-65
2022/01/18 12:01:00;;;;;;;3.87;2.33;;;;;;;;;;5000539;28;20444;-65
2022/01/18 12:03:27;;;;;;;2.23;1.93;;;;;;;;;;4992141;28;20937;-65
2022/01/18 12:05:57;;;;;;;3.00;2.90;;;;;;;;;;4998476;28;20437;-65
2022/01/18 12:08:31;;;;;;;2.80;2.60;;;;;;;;;;4995517;28;20484;-65
2022/01/18 12:10:57;;;;;;;2.67;2.47;;;;;;;;;;5000553;28;20441;-65
2022/01/18 12:13:29;;;;;;;5.83;3.77;;;;;;;;;;4981459;28;20433;-67
2022/01/18 12:15:57;;;;;;;3.40;3.20;;;;;;;;;;4988076;28;20441;-65
2022/01/18 12:18:27;;;;;;;3.30;3.10;;;;;;;;;;5001451;28;20951;-65
2022/01/18 12:20:58;;;;;;;2.33;2.27;;;;;;;;;;4986903;28;20448;-66
2022/01/18 12:23:27;;;;;;;3.30;3.07;;;;;;;;;;4979377;28;20524;-67
2022/01/18 12:26:14;;;;;;;6.13;3.13;;;;;;;;;;4988163;28;20488;-65
2022/01/18 12:31:40;;;;;;;3.30;3.10;;;;;;;;;;4982103;28;20443;-65
2022/01/18 12:34:29;;;;;;;6.40;4.05;;;;;;;;;;4979668;28;20469;-65
2022/01/18 12:37:20;;;;;;;4.07;3.27;;;;;;;;;;5003065;28;20264;-66
2022/01/18 12:39:57;;;;;;;2.83;2.60;;;;;;;;;;4975170;28;20461;-65
2022/01/18 12:45:00;;;;;;;2.70;2.60;;;;;;;;;;4987814;28;20507;-66
2022/01/18 12:47:26;;;;;;;3.17;2.97;;;;;;;;;;4981153;28;20430;-65
2022/01/18 12:49:53;;;;;;;4.33;4.10;;;;;;;;;;4990129;28;20433;-65
2022/01/18 12:52:19;;;;;;;2.57;2.57;;;;;;;;;;4988873;28;20444;-65
2022/01/18 12:54:48;;;;;;;4.13;3.60;;;;;;;;;;4981586;28;20453;-66
2022/01/18 12:57:13;;;;;;;10.10;3.03;;;;;;;;;;4986848;28;20437;-65
2022/01/18 12:59:58;;;;;;;3.60;3.50;;;;;;;;;;4980201;28;20445;-65
2022/01/18 13:02:24;;;;;;;4.40;3.20;;;;;;;;;;4985577;28;20445;-66
2022/01/18 13:05:00;;;;;;;4.60;3.43;;;;;;;;;;4987598;28;20496;-65
2022/01/18 13:07:26;;;;;;;3.27;2.97;;;;;;;;;;4980596;28;20487;-66
2022/01/18 13:09:56;;;;;;;2.37;2.27;;;;;;;;;;4984057;28;20445;-65
2022/01/18 13:12:32;;;;;;;2.80;2.53;;;;;;;;;;4984847;28;20429;-67
2022/01/18 13:14:59;;;;;;;2.63;2.43;;;;;;;;;;4986742;28;20453;-66
2022/01/18 13:23:52;;;;;;;2.47;2.27;;;;;;;;;;4985734;28;20935;-66
2022/01/18 13:26:37;;;;;;;1.53;1.53;;;;;;;;;;4987014;28;20967;-65
2022/01/18 13:29:11;;;;;;;3.27;2.40;;;;;;;;;;4986491;28;20504;-65
2022/01/18 13:31:37;;;;;;;3.33;1.80;;;;;;;;;;4981919;28;20450;-67
2022/01/18 13:34:04;;;;;;;2.10;2.00;;;;;;;;;;4988448;28;20913;-64
2022/01/18 13:36:32;;;;;;;1.93;1.83;;;;;;;;;;4980303;28;20460;-66
2022/01/18 13:39:18;;;;;;;1.77;1.67;;;;;;;;;;4985291;28;20811;-66
2022/01/18 13:41:44;;;;;;;4.10;1.87;;;;;;;;;;4982687;28;20437;-66
2022/01/18 13:44:10;;;;;;;1.73;1.70;;;;;;;;;;4974733;28;20989;-66
2022/01/18 13:46:36;;;;;;;2.77;2.43;;;;;;;;;;4977312;28;20458;-74
2022/01/18 13:49:09;;;;;;;5.03;2.67;;;;;;;;;;4977423;28;20457;-72
2022/01/18 13:51:35;;;;;;;2.63;2.53;;;;;;;;;;4975137;28;20453;-69
2022/01/18 13:54:07;;;;;;;2.37;2.27;;;;;;;;;;4986823;28;20464;-67
2022/01/18 13:56:33;;;;;;;2.43;2.27;;;;;;;;;;4980654;28;20437;-66
2022/01/18 13:59:01;;;;;;;2.50;2.00;;;;;;;;;;4979226;28;20447;-70
2022/01/18 14:01:28;;;;;;;2.30;2.20;;;;;;;;;;4984439;28;20437;-65
2022/01/18 14:04:01;;;;;;;3.70;2.30;;;;;;;;;;4983406;28;21025;-68
2022/01/18 14:06:34;;;;;;;2.53;2.33;;;;;;;;;;4973961;28;20537;-67
2022/01/18 14:09:00;;;;;;;2.30;2.23;;;;;;;;;;4989626;28;20449;-67
2022/01/18 14:11:34;;;;;;;2.00;2.00;;;;;;;;;;4972404;28;20504;-66
2022/01/18 14:14:04;;;;;;;2.07;2.03;;;;;;;;;;4985137;28;20455;-69
2022/01/18 14:16:33;;;;;;;2.63;2.53;;;;;;;;;;4984237;28;20440;-66
2022/01/18 14:18:59;;;;;;;4.97;2.83;;;;;;;;;;4990951;28;20437;-66
2022/01/18 14:21:33;;;;;;;2.93;2.73;;;;;;;;;;4988700;28;20487;-67
2022/01/18 14:24:06;;;;;;;2.83;2.73;;;;;;;;;;4993421;28;20499;-65
2022/01/18 14:26:32;;;;;;;3.90;2.80;;;;;;;;;;4987989;28;20847;-66
2022/01/18 14:29:01;;;;;;;5.33;3.27;;;;;;;;;;4992902;28;20437;-65
2022/01/18 14:31:27;;;;;;;2.77;2.67;;;;;;;;;;4989961;28;20417;-65
2022/01/18 14:33:53;;;;;;;2.40;2.30;;;;;;;;;;4993390;28;20432;-66
2022/01/18 14:36:19;;;;;;;2.87;2.80;;;;;;;;;;4989228;28;20425;-66
2022/01/18 14:38:45;;;;;;;3.40;3.13;;;;;;;;;;4986603;28;20964;-65
2022/01/18 14:41:22;;;;;;;2.90;2.80;;;;;;;;;;4989221;28;20460;-66
2022/01/18 14:43:52;;;;;;;8.43;5.10;;;;;;;;;;4991288;28;20496;-66
2022/01/18 14:46:26;;;;;;;3.83;3.53;;;;;;;;;;4984976;28;20682;-66
2022/01/18 14:48:58;;;;;;;3.10;2.90;;;;;;;;;;4991474;28;20495;-65
2022/01/18 14:51:27;;;;;;;2.47;2.37;;;;;;;;;;4986869;28;20429;-65
2022/01/18 14:53:53;;;;;;;2.40;2.30;;;;;;;;;;4992132;28;20441;-65
2022/01/18 14:56:19;;;;;;;2.90;2.80;;;;;;;;;;4986660;28;20535;-65
2022/01/18 14:58:45;;;;;;;3.10;2.90;;;;;;;;;;4993065;28;20515;-66
2022/01/18 15:01:11;;;;;;;3.53;3.30;;;;;;;;;;4989212;28;20437;-66
2022/01/18 15:03:37;;;;;;;3.67;3.50;;;;;;;;;;4990925;28;20425;-67
2022/01/18 15:06:03;;;;;;;3.10;2.90;;;;;;;;;;4984481;28;20449;-67
2022/01/18 15:08:29;;;;;;;3.77;3.57;;;;;;;;;;4992449;28;20464;-66
2022/01/18 15:10:55;;;;;;;3.33;3.10;;;;;;;;;;4989622;28;20433;-65
2022/01/18 15:13:21;;;;;;;1.80;1.80;;;;;;;;;;4983431;28;20439;-65
2022/01/18 15:15:47;;;;;;;2.40;2.40;;;;;;;;;;4985459;28;20452;-65
2022/01/18 15:18:13;;;;;;;2.53;2.27;;;;;;;;;;4987579;28;20930;-65
2022/01/18 15:20:39;;;;;;;10.63;3.30;;;;;;;;;;4989479;28;20449;-66
2022/01/18 15:23:05;;;;;;;8.50;2.27;;;;;;;;;;4981865;28;20449;-65
2022/01/18 15:25:31;;;;;;;2.30;2.30;;;;;;;;;;4981185;28;20523;-65
2022/01/18 15:27:57;;;;;;;2.77;2.57;;;;;;;;;;4987496;28;20429;-66
2022/01/18 15:30:25;;;;;;;2.93;2.73;;;;;;;;;;4988774;28;20460;-67
2022/01/18 15:32:51;;;;;;;7.90;3.70;;;;;;;;;;4991439;28;20409;-68
2022/01/18 15:35:18;;;;;;;6.10;4.90;;;;;;;;;;4985484;28;20480;-65
2022/01/18 15:37:44;;;;;;;5.77;5.27;;;;;;;;;;4986975;28;20445;-66
2022/01/18 15:40:12;;;;;;;3.30;3.00;;;;;;;;;;4979605;28;20424;-65
2022/01/18 15:42:38;;;;;;;2.50;2.37;;;;;;;;;;4988468;28;20449;-65
2022/01/18 15:45:04;;;;;;;3.40;3.13;;;;;;;;;;4988184;28;20587;-65
2022/01/18 15:47:30;;;;;;;3.03;2.83;;;;;;;;;;4990989;28;20420;-65
2022/01/18 15:49:56;;;;;;;3.37;3.03;;;;;;;;;;4987051;28;20433;-65
2022/01/18 15:52:24;;;;;;;3.27;3.00;;;;;;;;;;4988540;28;20441;-65
2022/01/18 15:54:50;;;;;;;3.60;3.40;;;;;;;;;;4988770;28;20459;-65
2022/01/18 15:57:17;;;;;;;3.37;3.17;;;;;;;;;;4990354;28;20901;-66
2022/01/18 15:59:44;;;;;;;3.83;3.23;;;;;;;;;;4985818;28;20433;-65
2022/01/18 16:02:10;;;;;;;3.60;3.40;;;;;;;;;;4991606;28;20422;-65
2022/01/18 16:04:36;;;;;;;3.00;2.90;;;;;;;;;;4985631;28;20492;-65
2022/01/18 16:07:03;;;;;;;2.77;2.63;;;;;;;;;;4988592;28;20461;-66
2022/01/18 16:09:30;;;;;;;4.00;3.70;;;;;;;;;;4988430;28;20582;-66
2022/01/18 16:11:56;;;;;;;2.53;2.47;;;;;;;;;;4990416;28;20957;-67